createdAt,value
2024-01-28T00:04:23.008Z,7.82
2024-01-28T00:09:26.196Z,9.60
2024-01-28T00:14:29.371Z,13.60
2024-01-28T00:19:32.681Z,7.95
2024-01-28T00:24:35.944Z,8.90
2024-01-28T00:29:38.991Z,5.32
2024-01-28T00:34:43.863Z,14.45
2024-01-28T00:39:48.782Z,14.13
2024-01-28T00:44:52.030Z,15.65
2024-01-28T00:49:55.156Z,8.97
2024-01-28T00:54:59.125Z,11.63
2024-01-28T01:00:02.381Z,13.25
2024-01-28T01:05:05.943Z,12.80
2024-01-28T01:10:10.068Z,25.00
2024-01-28T01:15:13.217Z,11.87
2024-01-28T01:20:19.110Z,7.72
2024-01-28T01:25:22.158Z,11.50
2024-01-28T01:30:25.574Z,10.90
2024-01-28T01:35:28.592Z,11.65
2024-01-28T01:40:31.975Z,28.00
2024-01-28T01:45:35.190Z,12.82
2024-01-28T01:50:38.707Z,12.15
2024-01-28T01:55:42.297Z,18.90
2024-01-28T02:00:45.602Z,13.65
2024-01-28T02:05:48.793Z,15.53
2024-01-28T02:10:51.935Z,14.30
2024-01-28T02:15:54.980Z,13.27
2024-01-28T02:20:58.252Z,20.73
2024-01-28T02:26:01.209Z,12.65
2024-01-28T02:31:04.229Z,14.43
2024-01-28T02:36:07.710Z,13.38
2024-01-28T02:41:11.436Z,14.23
2024-01-28T02:46:17.576Z,10.33
2024-01-28T02:51:20.592Z,10.50
2024-01-28T02:56:23.522Z,10.43
2024-01-28T03:01:26.552Z,19.13
2024-01-28T03:06:30.431Z,19.38
2024-01-28T03:11:33.570Z,18.07
2024-01-28T03:16:36.618Z,14.77
2024-01-28T03:21:39.667Z,14.90
2024-01-28T03:26:42.714Z,11.88
2024-01-28T03:31:45.705Z,14.75
2024-01-28T03:36:48.830Z,16.13
2024-01-28T03:41:52.334Z,18.08
2024-01-28T03:46:56.208Z,18.20
2024-01-28T03:51:59.175Z,10.05
2024-01-28T03:57:02.147Z,12.57
2024-01-28T04:02:05.784Z,14.93
2024-01-28T04:07:08.985Z,17.13
2024-01-28T04:12:12.150Z,12.20
2024-01-28T04:17:15.070Z,14.35
2024-01-28T04:22:18.117Z,13.00
2024-01-28T04:27:21.191Z,13.43
2024-01-28T04:32:24.696Z,9.60
2024-01-28T04:37:28.308Z,9.57
2024-01-28T04:42:31.473Z,16.17
2024-01-28T04:47:34.445Z,11.85
2024-01-28T04:52:37.592Z,13.23
2024-01-28T04:57:40.803Z,19.92
2024-01-28T05:02:43.764Z,17.37
2024-01-28T05:07:46.737Z,13.60
2024-01-28T05:12:49.966Z,13.55
2024-01-28T05:17:52.977Z,14.80
2024-01-28T05:22:56.011Z,10.55
2024-01-28T05:27:58.884Z,14.80
2024-01-28T05:33:01.787Z,14.50
2024-01-28T05:38:04.811Z,19.45
2024-01-28T05:43:08.635Z,16.67
2024-01-28T05:48:11.768Z,14.52
2024-01-28T05:53:14.897Z,15.73
2024-01-28T05:58:17.858Z,13.02
2024-01-28T06:03:20.804Z,18.75
2024-01-28T06:08:24.627Z,18.27
2024-01-28T06:13:28.002Z,23.10
2024-01-28T06:18:31.274Z,16.73
2024-01-28T06:23:34.375Z,23.80
2024-01-28T06:28:37.434Z,20.60
2024-01-28T06:33:40.583Z,19.50
2024-01-28T06:38:43.528Z,13.82
2024-01-28T06:43:46.716Z,16.87
2024-01-28T06:48:50.013Z,13.98
2024-01-28T06:53:53.466Z,22.38
2024-01-28T06:58:56.505Z,12.73
2024-01-28T07:03:59.606Z,15.82
2024-01-28T07:09:02.873Z,19.00
2024-01-28T07:14:05.987Z,22.92
2024-01-28T07:19:09.558Z,24.00
2024-01-28T07:24:12.795Z,19.07
2024-01-28T07:29:15.867Z,17.08
2024-01-28T07:34:21.643Z,18.93
2024-01-28T07:39:24.807Z,18.27
2024-01-28T07:44:28.361Z,20.60
2024-01-28T07:49:31.431Z,13.67
2024-01-28T07:54:34.533Z,19.42
2024-01-28T07:59:37.563Z,19.40
2024-01-28T08:04:40.861Z,15.05
2024-01-28T08:09:43.929Z,18.70
2024-01-28T08:14:46.917Z,21.40
2024-01-28T08:19:50.015Z,23.48
2024-01-28T08:24:53.240Z,18.73
2024-01-28T08:29:56.362Z,30.48
2024-01-28T08:34:59.385Z,13.95
2024-01-28T08:40:02.598Z,14.97
2024-01-28T08:45:06.781Z,17.25
2024-01-28T08:50:10.899Z,18.83
2024-01-28T08:55:13.981Z,15.38
2024-01-28T09:00:17.625Z,16.83
2024-01-28T09:05:20.875Z,14.53
2024-01-28T09:10:24.963Z,20.17
2024-01-28T09:15:28.366Z,19.60
2024-01-28T09:20:31.523Z,22.88
2024-01-28T09:25:35.240Z,21.95
2024-01-28T09:30:40.443Z,21.13
2024-01-28T09:35:45.100Z,18.30
2024-01-28T09:40:49.205Z,13.63
2024-01-28T09:45:52.544Z,21.58
2024-01-28T09:50:55.674Z,18.48
2024-01-28T09:55:59.439Z,19.43
2024-01-28T10:01:04.419Z,9.15
2024-01-28T10:06:07.641Z,15.57
2024-01-28T10:11:10.995Z,16.42
2024-01-28T10:16:14.002Z,16.38
2024-01-28T10:21:17.267Z,24.47
2024-01-28T10:26:22.107Z,31.10
2024-01-28T10:31:28.566Z,24.80
2024-01-28T10:36:35.495Z,18.80
2024-01-28T10:41:40.200Z,21.90
2024-01-28T10:46:45.934Z,27.77
2024-01-28T10:51:53.138Z,27.10
2024-01-28T10:56:56.517Z,30.37
2024-01-28T11:01:59.784Z,19.55
2024-01-28T11:07:04.388Z,22.38
2024-01-28T11:12:07.815Z,28.90
2024-01-28T11:17:14.486Z,59.83
2024-01-28T11:22:17.831Z,34.20
2024-01-28T11:27:24.163Z,34.70
2024-01-28T11:32:36.280Z,23.80
2024-01-28T11:37:45.148Z,22.10
2024-01-28T11:42:48.257Z,22.63
2024-01-28T11:47:51.809Z,22.77
2024-01-28T11:52:54.968Z,26.35
2024-01-28T11:57:58.054Z,27.23
2024-01-28T12:03:01.212Z,24.30
2024-01-28T12:08:07.723Z,24.42
2024-01-28T12:13:13.712Z,25.63
2024-01-28T12:18:16.947Z,20.80
2024-01-28T12:23:21.099Z,17.58
2024-01-28T12:28:24.626Z,23.53
2024-01-28T12:33:30.081Z,21.15
2024-01-28T12:38:33.246Z,28.03
2024-01-28T12:43:37.674Z,24.85
2024-01-28T12:48:41.050Z,28.10
2024-01-28T12:53:44.222Z,22.20
2024-01-28T12:58:47.846Z,21.58
2024-01-28T13:03:51.133Z,24.83
2024-01-28T13:08:54.255Z,25.50
2024-01-28T13:13:57.354Z,21.02
2024-01-28T13:19:00.598Z,23.50
2024-01-28T13:24:06.123Z,23.02
2024-01-28T13:29:09.522Z,24.60
2024-01-28T13:34:12.789Z,21.92
2024-01-28T13:39:16.474Z,29.88
2024-01-28T13:44:19.547Z,19.77
2024-01-28T13:49:22.882Z,24.35
2024-01-28T13:54:26.192Z,30.55
2024-01-28T13:59:29.261Z,21.37
2024-01-28T14:04:32.398Z,24.02
2024-01-28T14:09:35.635Z,24.30
2024-01-28T14:14:38.670Z,20.67
2024-01-28T14:19:42.137Z,23.85
2024-01-28T14:24:47.510Z,22.10
2024-01-28T14:29:51.548Z,24.55
2024-01-28T14:34:54.646Z,28.37
2024-01-28T14:39:57.903Z,24.65
2024-01-28T14:45:01.014Z,29.63
2024-01-28T14:50:05.221Z,26.80
2024-01-28T14:55:08.551Z,25.48
2024-01-28T15:00:11.997Z,28.60
2024-01-28T15:05:15.144Z,23.13
2024-01-28T15:10:18.291Z,26.50
2024-01-28T15:15:21.430Z,23.20
2024-01-28T15:20:24.564Z,25.50
2024-01-28T15:25:27.590Z,29.93
2024-01-28T15:30:30.655Z,20.08
2024-01-28T15:35:33.690Z,20.92
2024-01-28T15:40:36.814Z,25.10
2024-01-28T15:45:39.826Z,20.08
2024-01-28T15:50:43.171Z,24.10
2024-01-28T15:55:46.267Z,25.70
2024-01-28T16:00:49.362Z,27.20
2024-01-28T16:05:53.232Z,24.37
2024-01-28T16:10:56.605Z,28.25
2024-01-28T16:16:00.383Z,27.17
2024-01-28T16:21:03.796Z,24.73
2024-01-28T16:26:07.904Z,27.17
2024-01-28T16:31:10.996Z,20.53
2024-01-28T16:36:15.111Z,20.90
2024-01-28T16:41:18.250Z,31.03
2024-01-28T16:46:21.335Z,23.92
2024-01-28T16:51:24.767Z,25.83
2024-01-28T16:56:27.966Z,23.90
2024-01-28T17:01:31.130Z,26.17
2024-01-28T17:06:34.333Z,25.40
2024-01-28T17:11:37.366Z,26.40
2024-01-28T17:16:40.376Z,29.27
2024-01-28T17:21:43.444Z,30.13
2024-01-28T17:26:46.891Z,30.95
2024-01-28T17:31:49.889Z,33.17
2024-01-28T17:36:53.226Z,28.15
2024-01-28T17:41:56.454Z,24.20
2024-01-28T17:47:02.810Z,19.53
2024-01-28T17:52:09.464Z,29.10
2024-01-28T17:57:12.814Z,29.10
2024-01-28T18:02:15.866Z,35.22
2024-01-28T18:07:19.136Z,42.10
2024-01-28T18:12:22.285Z,42.40
2024-01-28T18:17:26.029Z,33.70
2024-01-28T18:22:29.299Z,42.00
2024-01-28T18:27:32.895Z,37.50
2024-01-28T18:32:36.317Z,38.97
2024-01-28T18:37:39.541Z,27.50
2024-01-28T18:42:42.814Z,44.63
2024-01-28T18:47:45.964Z,32.03
2024-01-28T18:52:49.296Z,33.03
2024-01-28T18:57:53.982Z,23.60
2024-01-28T19:02:58.945Z,27.70
2024-01-28T19:08:02.007Z,24.75
2024-01-28T19:13:05.389Z,27.23
2024-01-28T19:18:08.515Z,26.48
2024-01-28T19:23:11.675Z,19.73
2024-01-28T19:28:14.664Z,25.20
2024-01-28T19:33:18.218Z,23.20
2024-01-28T19:38:21.511Z,26.00
2024-01-28T19:43:25.101Z,22.83
2024-01-28T19:48:28.636Z,20.67
2024-01-28T19:53:32.236Z,22.97
2024-01-28T19:58:35.337Z,21.02
2024-01-28T20:03:38.356Z,25.47
2024-01-28T20:08:41.430Z,22.42
2024-01-28T20:13:45.547Z,21.98
2024-01-28T20:18:48.705Z,26.77
2024-01-28T20:23:55.460Z,31.48
2024-01-28T20:28:58.381Z,26.73
2024-01-28T20:34:02.873Z,26.05
2024-01-28T20:39:06.393Z,38.33
2024-01-28T20:44:09.590Z,27.17
2024-01-28T20:49:13.397Z,39.20
2024-01-28T20:54:17.313Z,37.87
2024-01-28T20:59:20.723Z,30.35
2024-01-28T21:04:24.175Z,30.40
2024-01-28T21:09:27.533Z,24.53
2024-01-28T21:14:30.689Z,42.90
2024-01-28T21:19:34.149Z,30.77
2024-01-28T21:24:37.292Z,32.08
2024-01-28T21:29:41.862Z,24.63
2024-01-28T21:34:45.106Z,31.23
2024-01-28T21:39:48.291Z,27.35
2024-01-28T21:44:51.365Z,28.27
2024-01-28T21:49:54.571Z,17.83
2024-01-28T21:54:57.859Z,20.95
2024-01-28T22:00:01.181Z,20.97
2024-01-28T22:05:05.352Z,28.50
2024-01-28T22:10:09.428Z,23.23
2024-01-28T22:15:12.889Z,17.00
2024-01-28T22:20:16.655Z,21.83
2024-01-28T22:25:19.870Z,21.63
2024-01-28T22:30:23.023Z,23.92
2024-01-28T22:35:28.221Z,16.23
2024-01-28T22:40:31.727Z,21.27
2024-01-28T22:45:35.716Z,23.40
2024-01-28T22:50:39.334Z,19.47
2024-01-28T22:55:42.657Z,24.17
2024-01-28T23:00:45.819Z,27.87
2024-01-28T23:05:49.529Z,27.40
2024-01-28T23:10:53.140Z,20.58
2024-01-28T23:15:57.100Z,22.53
2024-01-28T23:21:01.349Z,18.65
2024-01-28T23:26:04.421Z,21.43
2024-01-28T23:31:09.657Z,20.45
2024-01-28T23:36:12.668Z,20.40
2024-01-28T23:41:16.294Z,21.10
2024-01-28T23:46:19.654Z,22.23
2024-01-28T23:51:23.294Z,20.97
2024-01-28T23:56:27.643Z,22.95
